Marble Canyon, Arizona
Current Conditions -  °F | °C
As of 3:53 PM on Thursday 27 Nov 2014 (Local Time) from KPGA Reporting Station
Clear Clear  
Wind Chill: 56°   Ceiling: Unl
Heat Index: 56°   Visibility: 10mi
Dew Point: 19°   Wind: 0mph
Humidity: 24%   Direction: NA
Pressure: 30.3"   Gusts: NA
Location:  36.82°N, 111.64°W
Report Text: KPGA 272253Z AUTO 00000KT 10SM CLR 13/M07 A3030 RMK AO2 SLP243 T01331072 TSNO
Loading
Personal Weather Stations






























Interactive Weather Map New forecast layout! Learn more

10-Day Weather Forecast

Advertisements
Track Severe Weather on mobile